sensor_id;sensor_type;location;lat;lon;timestamp;P1;durP1;ratioP1;P2;durP2;ratioP2
34960;SDS011;30789;52.030;7.110;2022-09-09T00:00:33;8.30;;;2.75;;
34960;SDS011;30789;52.030;7.110;2022-09-09T00:03:05;8.95;;;2.65;;
34960;SDS011;30789;52.030;7.110;2022-09-09T00:05:36;5.38;;;2.53;;
34960;SDS011;30789;52.030;7.110;2022-09-09T00:08:06;4.13;;;2.60;;
34960;SDS011;30789;52.030;7.110;2022-09-09T00:10:38;7.63;;;2.30;;
34960;SDS011;30789;52.030;7.110;2022-09-09T00:13:10;3.47;;;2.17;;
34960;SDS011;30789;52.030;7.110;2022-09-09T00:15:42;1.77;;;1.67;;
34960;SDS011;30789;52.030;7.110;2022-09-09T00:18:14;2.38;;;1.30;;
34960;SDS011;30789;52.030;7.110;2022-09-09T00:20:43;2.42;;;1.40;;
34960;SDS011;30789;52.030;7.110;2022-09-09T00:23:14;2.95;;;1.17;;
34960;SDS011;30789;52.030;7.110;2022-09-09T00:25:42;2.58;;;1.10;;
34960;SDS011;30789;52.030;7.110;2022-09-09T00:28:13;2.05;;;1.10;;
34960;SDS011;30789;52.030;7.110;2022-09-09T00:30:42;1.20;;;1.05;;
34960;SDS011;30789;52.030;7.110;2022-09-09T00:33:09;1.17;;;0.80;;
34960;SDS011;30789;52.030;7.110;2022-09-09T00:35:40;1.37;;;0.70;;
34960;SDS011;30789;52.030;7.110;2022-09-09T00:38:10;2.55;;;0.70;;
34960;SDS011;30789;52.030;7.110;2022-09-09T00:40:39;1.33;;;0.60;;
34960;SDS011;30789;52.030;7.110;2022-09-09T00:43:10;4.35;;;0.73;;
34960;SDS011;30789;52.030;7.110;2022-09-09T00:45:46;0.40;;;0.40;;
34960;SDS011;30789;52.030;7.110;2022-09-09T00:48:18;1.13;;;0.60;;
34960;SDS011;30789;52.030;7.110;2022-09-09T00:50:47;1.08;;;0.60;;
34960;SDS011;30789;52.030;7.110;2022-09-09T00:53:24;1.10;;;0.70;;
34960;SDS011;30789;52.030;7.110;2022-09-09T00:55:57;0.50;;;0.50;;
34960;SDS011;30789;52.030;7.110;2022-09-09T00:58:25;0.40;;;0.40;;
34960;SDS011;30789;52.030;7.110;2022-09-09T01:00:53;1.10;;;0.52;;
34960;SDS011;30789;52.030;7.110;2022-09-09T01:03:22;1.17;;;0.47;;
34960;SDS011;30789;52.030;7.110;2022-09-09T01:05:51;1.65;;;0.57;;
34960;SDS011;30789;52.030;7.110;2022-09-09T01:08:27;1.13;;;0.50;;
34960;SDS011;30789;52.030;7.110;2022-09-09T01:10:59;1.08;;;0.60;;
34960;SDS011;30789;52.030;7.110;2022-09-09T01:13:28;1.48;;;0.80;;
34960;SDS011;30789;52.030;7.110;2022-09-09T01:15:56;1.30;;;0.90;;
34960;SDS011;30789;52.030;7.110;2022-09-09T01:18:26;1.95;;;0.70;;
34960;SDS011;30789;52.030;7.110;2022-09-09T01:20:55;2.38;;;1.00;;
34960;SDS011;30789;52.030;7.110;2022-09-09T01:26:08;2.08;;;0.77;;
34960;SDS011;30789;52.030;7.110;2022-09-09T01:28:35;1.23;;;0.80;;
34960;SDS011;30789;52.030;7.110;2022-09-09T01:31:02;1.35;;;0.77;;
34960;SDS011;30789;52.030;7.110;2022-09-09T01:33:29;1.42;;;0.80;;
34960;SDS011;30789;52.030;7.110;2022-09-09T01:35:57;2.28;;;1.08;;
34960;SDS011;30789;52.030;7.110;2022-09-09T01:38:26;2.67;;;0.95;;
34960;SDS011;30789;52.030;7.110;2022-09-09T01:40:52;3.00;;;1.10;;
34960;SDS011;30789;52.030;7.110;2022-09-09T01:43:20;1.45;;;0.88;;
34960;SDS011;30789;52.030;7.110;2022-09-09T01:45:47;1.52;;;0.98;;
34960;SDS011;30789;52.030;7.110;2022-09-09T01:48:15;2.30;;;1.35;;
34960;SDS011;30789;52.030;7.110;2022-09-09T01:50:41;2.45;;;1.10;;
34960;SDS011;30789;52.030;7.110;2022-09-09T01:53:07;5.78;;;1.42;;
34960;SDS011;30789;52.030;7.110;2022-09-09T01:55:37;1.48;;;1.38;;
34960;SDS011;30789;52.030;7.110;2022-09-09T01:58:08;2.47;;;1.80;;
34960;SDS011;30789;52.030;7.110;2022-09-09T02:00:39;2.05;;;1.77;;
34960;SDS011;30789;52.030;7.110;2022-09-09T02:03:11;2.20;;;2.00;;
34960;SDS011;30789;52.030;7.110;2022-09-09T02:05:43;2.50;;;2.28;;
34960;SDS011;30789;52.030;7.110;2022-09-09T02:08:11;3.67;;;2.38;;
34960;SDS011;30789;52.030;7.110;2022-09-09T02:10:42;3.83;;;2.58;;
34960;SDS011;30789;52.030;7.110;2022-09-09T02:13:11;6.03;;;3.08;;
34960;SDS011;30789;52.030;7.110;2022-09-09T02:15:41;3.17;;;2.88;;
34960;SDS011;30789;52.030;7.110;2022-09-09T02:18:08;3.88;;;2.80;;
34960;SDS011;30789;52.030;7.110;2022-09-09T02:20:36;4.60;;;2.92;;
34960;SDS011;30789;52.030;7.110;2022-09-09T02:23:03;3.33;;;2.92;;
34960;SDS011;30789;52.030;7.110;2022-09-09T02:25:29;3.42;;;2.72;;
34960;SDS011;30789;52.030;7.110;2022-09-09T02:27:56;4.05;;;3.20;;
34960;SDS011;30789;52.030;7.110;2022-09-09T02:30:23;2.70;;;2.50;;
34960;SDS011;30789;52.030;7.110;2022-09-09T02:32:51;3.00;;;2.65;;
34960;SDS011;30789;52.030;7.110;2022-09-09T02:37:49;6.00;;;3.20;;
34960;SDS011;30789;52.030;7.110;2022-09-09T02:40:17;5.28;;;3.42;;
34960;SDS011;30789;52.030;7.110;2022-09-09T02:42:44;5.07;;;3.75;;
34960;SDS011;30789;52.030;7.110;2022-09-09T02:45:12;5.63;;;4.10;;
34960;SDS011;30789;52.030;7.110;2022-09-09T02:47:39;5.80;;;4.03;;
34960;SDS011;30789;52.030;7.110;2022-09-09T02:50:10;5.10;;;3.78;;
34960;SDS011;30789;52.030;7.110;2022-09-09T02:52:40;4.40;;;3.45;;
34960;SDS011;30789;52.030;7.110;2022-09-09T02:55:18;6.55;;;3.97;;
34960;SDS011;30789;52.030;7.110;2022-09-09T02:57:46;5.90;;;3.83;;
34960;SDS011;30789;52.030;7.110;2022-09-09T03:00:13;5.07;;;4.22;;
34960;SDS011;30789;52.030;7.110;2022-09-09T03:02:39;6.20;;;4.25;;
34960;SDS011;30789;52.030;7.110;2022-09-09T03:05:07;5.00;;;3.70;;
34960;SDS011;30789;52.030;7.110;2022-09-09T03:07:35;5.85;;;4.32;;
34960;SDS011;30789;52.030;7.110;2022-09-09T03:10:01;8.13;;;4.57;;
34960;SDS011;30789;52.030;7.110;2022-09-09T03:12:27;5.00;;;4.50;;
34960;SDS011;30789;52.030;7.110;2022-09-09T03:14:54;9.48;;;4.50;;
34960;SDS011;30789;52.030;7.110;2022-09-09T03:17:20;5.20;;;4.22;;
34960;SDS011;30789;52.030;7.110;2022-09-09T03:19:46;5.32;;;4.15;;
34960;SDS011;30789;52.030;7.110;2022-09-09T03:22:14;6.75;;;4.03;;
34960;SDS011;30789;52.030;7.110;2022-09-09T03:24:42;5.57;;;4.18;;
34960;SDS011;30789;52.030;7.110;2022-09-09T03:27:08;4.95;;;3.63;;
34960;SDS011;30789;52.030;7.110;2022-09-09T03:29:34;7.85;;;4.32;;
34960;SDS011;30789;52.030;7.110;2022-09-09T03:32:01;5.65;;;4.38;;
34960;SDS011;30789;52.030;7.110;2022-09-09T03:34:27;5.28;;;3.78;;
34960;SDS011;30789;52.030;7.110;2022-09-09T03:36:53;8.32;;;4.07;;
34960;SDS011;30789;52.030;7.110;2022-09-09T03:39:20;5.70;;;3.95;;
34960;SDS011;30789;52.030;7.110;2022-09-09T03:41:48;6.57;;;4.13;;
34960;SDS011;30789;52.030;7.110;2022-09-09T03:44:14;4.88;;;3.92;;
34960;SDS011;30789;52.030;7.110;2022-09-09T03:46:41;4.40;;;3.53;;
34960;SDS011;30789;52.030;7.110;2022-09-09T03:49:07;6.75;;;3.50;;
34960;SDS011;30789;52.030;7.110;2022-09-09T03:51:35;4.95;;;3.40;;
34960;SDS011;30789;52.030;7.110;2022-09-09T03:54:01;6.10;;;3.72;;
34960;SDS011;30789;52.030;7.110;2022-09-09T03:56:30;5.93;;;3.75;;
34960;SDS011;30789;52.030;7.110;2022-09-09T03:58:57;8.93;;;4.32;;
34960;SDS011;30789;52.030;7.110;2022-09-09T04:01:24;8.18;;;3.67;;
34960;SDS011;30789;52.030;7.110;2022-09-09T04:03:50;4.20;;;3.60;;
34960;SDS011;30789;52.030;7.110;2022-09-09T04:06:17;6.43;;;4.22;;
34960;SDS011;30789;52.030;7.110;2022-09-09T04:08:46;4.68;;;3.75;;
34960;SDS011;30789;52.030;7.110;2022-09-09T04:11:13;4.03;;;3.53;;
34960;SDS011;30789;52.030;7.110;2022-09-09T04:13:40;4.93;;;3.72;;
34960;SDS011;30789;52.030;7.110;2022-09-09T04:16:08;5.38;;;3.70;;
34960;SDS011;30789;52.030;7.110;2022-09-09T04:18:35;4.80;;;3.47;;
34960;SDS011;30789;52.030;7.110;2022-09-09T04:21:01;5.82;;;3.92;;
34960;SDS011;30789;52.030;7.110;2022-09-09T04:23:28;5.15;;;3.50;;
34960;SDS011;30789;52.030;7.110;2022-09-09T04:25:55;4.15;;;3.63;;
34960;SDS011;30789;52.030;7.110;2022-09-09T04:28:22;9.60;;;3.75;;
34960;SDS011;30789;52.030;7.110;2022-09-09T04:30:49;3.55;;;3.03;;
34960;SDS011;30789;52.030;7.110;2022-09-09T04:33:16;3.58;;;3.03;;
34960;SDS011;30789;52.030;7.110;2022-09-09T04:35:43;4.03;;;2.78;;
34960;SDS011;30789;52.030;7.110;2022-09-09T04:38:10;4.82;;;3.20;;
34960;SDS011;30789;52.030;7.110;2022-09-09T04:40:36;5.78;;;3.17;;
34960;SDS011;30789;52.030;7.110;2022-09-09T04:43:07;6.38;;;3.38;;
34960;SDS011;30789;52.030;7.110;2022-09-09T04:45:34;4.25;;;2.90;;
34960;SDS011;30789;52.030;7.110;2022-09-09T04:48:00;6.85;;;3.15;;
34960;SDS011;30789;52.030;7.110;2022-09-09T04:50:28;4.55;;;3.47;;
34960;SDS011;30789;52.030;7.110;2022-09-09T04:52:54;6.95;;;3.30;;
34960;SDS011;30789;52.030;7.110;2022-09-09T04:55:21;6.95;;;3.53;;
34960;SDS011;30789;52.030;7.110;2022-09-09T04:57:47;5.55;;;3.08;;
34960;SDS011;30789;52.030;7.110;2022-09-09T05:00:14;5.68;;;3.60;;
34960;SDS011;30789;52.030;7.110;2022-09-09T05:02:42;6.25;;;3.38;;
34960;SDS011;30789;52.030;7.110;2022-09-09T05:05:08;6.22;;;3.45;;
34960;SDS011;30789;52.030;7.110;2022-09-09T05:07:37;4.10;;;2.67;;
34960;SDS011;30789;52.030;7.110;2022-09-09T05:10:04;7.28;;;3.10;;
34960;SDS011;30789;52.030;7.110;2022-09-09T05:12:31;6.07;;;3.35;;
34960;SDS011;30789;52.030;7.110;2022-09-09T05:14:57;5.97;;;3.20;;
34960;SDS011;30789;52.030;7.110;2022-09-09T05:17:23;5.53;;;2.72;;
34960;SDS011;30789;52.030;7.110;2022-09-09T05:19:50;4.53;;;3.08;;
34960;SDS011;30789;52.030;7.110;2022-09-09T05:22:18;5.95;;;3.20;;
34960;SDS011;30789;52.030;7.110;2022-09-09T05:24:46;3.60;;;2.70;;
34960;SDS011;30789;52.030;7.110;2022-09-09T05:27:15;10.20;;;2.63;;
34960;SDS011;30789;52.030;7.110;2022-09-09T05:29:43;4.30;;;2.30;;
34960;SDS011;30789;52.030;7.110;2022-09-09T05:32:09;5.13;;;2.60;;
34960;SDS011;30789;52.030;7.110;2022-09-09T05:34:36;3.80;;;2.50;;
34960;SDS011;30789;52.030;7.110;2022-09-09T05:37:02;4.65;;;1.95;;
34960;SDS011;30789;52.030;7.110;2022-09-09T05:39:29;4.53;;;2.53;;
34960;SDS011;30789;52.030;7.110;2022-09-09T05:41:57;3.75;;;2.25;;
34960;SDS011;30789;52.030;7.110;2022-09-09T05:44:23;5.03;;;2.35;;
34960;SDS011;30789;52.030;7.110;2022-09-09T05:46:52;4.47;;;2.22;;
34960;SDS011;30789;52.030;7.110;2022-09-09T05:49:19;7.68;;;2.28;;
34960;SDS011;30789;52.030;7.110;2022-09-09T05:51:46;5.85;;;1.85;;
34960;SDS011;30789;52.030;7.110;2022-09-09T05:54:13;3.10;;;1.85;;
34960;SDS011;30789;52.030;7.110;2022-09-09T05:56:40;5.38;;;2.10;;
34960;SDS011;30789;52.030;7.110;2022-09-09T05:59:08;3.78;;;2.17;;
34960;SDS011;30789;52.030;7.110;2022-09-09T06:01:35;5.40;;;2.10;;
34960;SDS011;30789;52.030;7.110;2022-09-09T06:04:05;2.42;;;1.88;;
34960;SDS011;30789;52.030;7.110;2022-09-09T06:06:32;4.82;;;1.98;;
34960;SDS011;30789;52.030;7.110;2022-09-09T06:09:01;2.53;;;1.60;;
34960;SDS011;30789;52.030;7.110;2022-09-09T06:11:29;5.55;;;1.98;;
34960;SDS011;30789;52.030;7.110;2022-09-09T06:13:56;4.53;;;1.55;;
34960;SDS011;30789;52.030;7.110;2022-09-09T06:16:24;4.45;;;1.73;;
34960;SDS011;30789;52.030;7.110;2022-09-09T06:18:51;4.85;;;2.08;;
34960;SDS011;30789;52.030;7.110;2022-09-09T06:21:19;6.13;;;2.00;;
34960;SDS011;30789;52.030;7.110;2022-09-09T06:23:46;5.55;;;1.88;;
34960;SDS011;30789;52.030;7.110;2022-09-09T06:26:13;6.15;;;1.83;;
34960;SDS011;30789;52.030;7.110;2022-09-09T06:28:40;4.90;;;2.03;;
34960;SDS011;30789;52.030;7.110;2022-09-09T06:31:08;3.95;;;2.28;;
34960;SDS011;30789;52.030;7.110;2022-09-09T06:33:36;4.78;;;1.83;;
34960;SDS011;30789;52.030;7.110;2022-09-09T06:36:06;6.65;;;2.50;;
34960;SDS011;30789;52.030;7.110;2022-09-09T06:38:33;4.03;;;2.60;;
34960;SDS011;30789;52.030;7.110;2022-09-09T06:40:59;2.33;;;2.13;;
34960;SDS011;30789;52.030;7.110;2022-09-09T06:43:27;5.75;;;2.60;;
34960;SDS011;30789;52.030;7.110;2022-09-09T06:45:54;4.18;;;2.85;;
34960;SDS011;30789;52.030;7.110;2022-09-09T06:48:20;4.78;;;2.20;;
34960;SDS011;30789;52.030;7.110;2022-09-09T06:50:48;3.60;;;2.10;;
34960;SDS011;30789;52.030;7.110;2022-09-09T06:53:16;2.13;;;1.83;;
34960;SDS011;30789;52.030;7.110;2022-09-09T06:55:44;3.65;;;1.90;;
34960;SDS011;30789;52.030;7.110;2022-09-09T06:58:10;4.28;;;2.03;;
34960;SDS011;30789;52.030;7.110;2022-09-09T07:00:37;3.67;;;1.85;;
34960;SDS011;30789;52.030;7.110;2022-09-09T07:03:03;4.97;;;2.25;;
34960;SDS011;30789;52.030;7.110;2022-09-09T07:05:30;3.47;;;2.35;;
34960;SDS011;30789;52.030;7.110;2022-09-09T07:07:58;6.18;;;2.05;;
34960;SDS011;30789;52.030;7.110;2022-09-09T07:10:24;4.15;;;2.10;;
34960;SDS011;30789;52.030;7.110;2022-09-09T07:12:50;4.78;;;1.77;;
34960;SDS011;30789;52.030;7.110;2022-09-09T07:15:17;6.35;;;2.00;;
34960;SDS011;30789;52.030;7.110;2022-09-09T07:17:44;4.82;;;2.10;;
34960;SDS011;30789;52.030;7.110;2022-09-09T07:20:11;3.13;;;1.52;;
34960;SDS011;30789;52.030;7.110;2022-09-09T07:22:37;3.40;;;1.80;;
34960;SDS011;30789;52.030;7.110;2022-09-09T07:25:06;4.55;;;1.60;;
34960;SDS011;30789;52.030;7.110;2022-09-09T07:27:32;6.90;;;1.90;;
34960;SDS011;30789;52.030;7.110;2022-09-09T07:29:59;5.30;;;1.88;;
34960;SDS011;30789;52.030;7.110;2022-09-09T07:32:25;5.03;;;1.80;;
34960;SDS011;30789;52.030;7.110;2022-09-09T07:34:52;3.38;;;1.55;;
34960;SDS011;30789;52.030;7.110;2022-09-09T07:37:18;5.15;;;1.70;;
34960;SDS011;30789;52.030;7.110;2022-09-09T07:39:44;4.70;;;1.90;;
34960;SDS011;30789;52.030;7.110;2022-09-09T07:42:12;3.92;;;1.65;;
34960;SDS011;30789;52.030;7.110;2022-09-09T07:44:39;6.13;;;1.80;;
34960;SDS011;30789;52.030;7.110;2022-09-09T07:47:06;8.63;;;2.22;;
34960;SDS011;30789;52.030;7.110;2022-09-09T07:49:32;3.80;;;1.73;;
34960;SDS011;30789;52.030;7.110;2022-09-09T07:51:59;3.47;;;1.80;;
34960;SDS011;30789;52.030;7.110;2022-09-09T07:54:25;6.22;;;1.80;;
34960;SDS011;30789;52.030;7.110;2022-09-09T07:56:51;4.70;;;1.92;;
34960;SDS011;30789;52.030;7.110;2022-09-09T07:59:19;5.95;;;1.98;;
34960;SDS011;30789;52.030;7.110;2022-09-09T08:01:46;4.45;;;1.70;;
34960;SDS011;30789;52.030;7.110;2022-09-09T08:04:13;5.22;;;2.55;;
34960;SDS011;30789;52.030;7.110;2022-09-09T08:06:42;3.63;;;1.75;;
34960;SDS011;30789;52.030;7.110;2022-09-09T08:09:09;3.20;;;1.20;;
34960;SDS011;30789;52.030;7.110;2022-09-09T08:11:35;3.10;;;2.00;;
34960;SDS011;30789;52.030;7.110;2022-09-09T08:14:02;5.60;;;2.00;;
34960;SDS011;30789;52.030;7.110;2022-09-09T08:16:30;6.82;;;1.95;;
34960;SDS011;30789;52.030;7.110;2022-09-09T08:18:57;7.47;;;1.88;;
34960;SDS011;30789;52.030;7.110;2022-09-09T08:21:24;7.22;;;1.90;;
34960;SDS011;30789;52.030;7.110;2022-09-09T08:23:52;6.18;;;2.30;;
34960;SDS011;30789;52.030;7.110;2022-09-09T08:26:19;7.15;;;1.98;;
34960;SDS011;30789;52.030;7.110;2022-09-09T08:28:46;4.25;;;2.13;;
34960;SDS011;30789;52.030;7.110;2022-09-09T08:31:13;6.93;;;2.20;;
34960;SDS011;30789;52.030;7.110;2022-09-09T08:33:42;6.03;;;2.60;;
34960;SDS011;30789;52.030;7.110;2022-09-09T08:36:11;7.15;;;2.30;;
34960;SDS011;30789;52.030;7.110;2022-09-09T08:38:38;6.18;;;2.45;;
34960;SDS011;30789;52.030;7.110;2022-09-09T08:41:13;5.53;;;2.30;;
34960;SDS011;30789;52.030;7.110;2022-09-09T08:43:42;4.35;;;2.00;;
34960;SDS011;30789;52.030;7.110;2022-09-09T08:46:09;5.88;;;2.40;;
34960;SDS011;30789;52.030;7.110;2022-09-09T08:48:46;7.10;;;2.20;;
34960;SDS011;30789;52.030;7.110;2022-09-09T08:51:17;4.30;;;1.83;;
34960;SDS011;30789;52.030;7.110;2022-09-09T08:53:44;6.85;;;2.33;;
34960;SDS011;30789;52.030;7.110;2022-09-09T08:56:12;5.85;;;2.75;;
34960;SDS011;30789;52.030;7.110;2022-09-09T08:58:41;6.88;;;2.92;;
34960;SDS011;30789;52.030;7.110;2022-09-09T09:01:17;7.57;;;2.45;;
34960;SDS011;30789;52.030;7.110;2022-09-09T09:03:50;9.50;;;2.35;;
34960;SDS011;30789;52.030;7.110;2022-09-09T09:06:22;5.55;;;2.72;;
34960;SDS011;30789;52.030;7.110;2022-09-09T09:08:53;5.78;;;2.40;;
34960;SDS011;30789;52.030;7.110;2022-09-09T09:11:25;4.40;;;2.28;;
34960;SDS011;30789;52.030;7.110;2022-09-09T09:13:52;4.13;;;2.00;;
34960;SDS011;30789;52.030;7.110;2022-09-09T09:16:22;6.55;;;2.50;;
34960;SDS011;30789;52.030;7.110;2022-09-09T09:18:50;2.47;;;1.75;;
34960;SDS011;30789;52.030;7.110;2022-09-09T09:21:18;5.63;;;2.17;;
34960;SDS011;30789;52.030;7.110;2022-09-09T09:23:48;3.67;;;1.85;;
34960;SDS011;30789;52.030;7.110;2022-09-09T09:26:16;6.88;;;2.00;;
34960;SDS011;30789;52.030;7.110;2022-09-09T09:28:42;5.28;;;2.33;;
34960;SDS011;30789;52.030;7.110;2022-09-09T09:31:09;7.45;;;2.53;;
34960;SDS011;30789;52.030;7.110;2022-09-09T09:33:38;9.10;;;2.53;;
34960;SDS011;30789;52.030;7.110;2022-09-09T09:36:12;5.97;;;1.90;;
34960;SDS011;30789;52.030;7.110;2022-09-09T09:38:40;6.32;;;1.85;;
34960;SDS011;30789;52.030;7.110;2022-09-09T09:41:17;5.32;;;2.22;;
34960;SDS011;30789;52.030;7.110;2022-09-09T09:43:54;2.75;;;1.33;;
34960;SDS011;30789;52.030;7.110;2022-09-09T09:46:21;3.60;;;1.77;;
34960;SDS011;30789;52.030;7.110;2022-09-09T09:48:55;3.28;;;1.50;;
34960;SDS011;30789;52.030;7.110;2022-09-09T09:51:23;5.32;;;1.50;;
34960;SDS011;30789;52.030;7.110;2022-09-09T09:53:50;2.45;;;1.23;;
34960;SDS011;30789;52.030;7.110;2022-09-09T09:56:17;3.70;;;1.35;;
34960;SDS011;30789;52.030;7.110;2022-09-09T09:58:52;4.05;;;1.15;;
34960;SDS011;30789;52.030;7.110;2022-09-09T10:01:19;3.20;;;0.80;;
34960;SDS011;30789;52.030;7.110;2022-09-09T10:03:50;1.30;;;0.60;;
34960;SDS011;30789;52.030;7.110;2022-09-09T10:06:16;5.38;;;0.98;;
34960;SDS011;30789;52.030;7.110;2022-09-09T10:08:45;3.85;;;1.00;;
34960;SDS011;30789;52.030;7.110;2022-09-09T10:11:17;3.05;;;0.90;;
34960;SDS011;30789;52.030;7.110;2022-09-09T10:13:47;2.45;;;0.75;;
34960;SDS011;30789;52.030;7.110;2022-09-09T10:16:23;3.58;;;0.60;;
34960;SDS011;30789;52.030;7.110;2022-09-09T10:18:55;3.30;;;0.70;;
34960;SDS011;30789;52.030;7.110;2022-09-09T10:21:28;2.22;;;0.90;;
34960;SDS011;30789;52.030;7.110;2022-09-09T10:24:02;2.65;;;0.95;;
34960;SDS011;30789;52.030;7.110;2022-09-09T10:26:35;4.57;;;1.00;;
34960;SDS011;30789;52.030;7.110;2022-09-09T10:29:17;2.53;;;0.98;;
34960;SDS011;30789;52.030;7.110;2022-09-09T10:31:49;3.63;;;0.85;;
34960;SDS011;30789;52.030;7.110;2022-09-09T10:34:23;2.65;;;0.75;;
34960;SDS011;30789;52.030;7.110;2022-09-09T10:36:52;3.50;;;0.80;;
34960;SDS011;30789;52.030;7.110;2022-09-09T10:39:25;5.38;;;1.00;;
34960;SDS011;30789;52.030;7.110;2022-09-09T10:41:56;3.45;;;0.75;;
34960;SDS011;30789;52.030;7.110;2022-09-09T10:44:30;4.85;;;0.82;;
34960;SDS011;30789;52.030;7.110;2022-09-09T10:47:07;4.10;;;1.20;;
34960;SDS011;30789;52.030;7.110;2022-09-09T10:49:45;3.00;;;1.08;;
34960;SDS011;30789;52.030;7.110;2022-09-09T10:52:15;2.33;;;1.30;;
34960;SDS011;30789;52.030;7.110;2022-09-09T10:54:47;4.00;;;1.08;;
34960;SDS011;30789;52.030;7.110;2022-09-09T10:57:21;2.28;;;1.00;;
34960;SDS011;30789;52.030;7.110;2022-09-09T10:59:51;5.28;;;1.20;;
34960;SDS011;30789;52.030;7.110;2022-09-09T11:02:22;4.57;;;1.20;;
34960;SDS011;30789;52.030;7.110;2022-09-09T11:04:53;3.95;;;1.20;;
34960;SDS011;30789;52.030;7.110;2022-09-09T11:07:23;3.90;;;1.42;;
34960;SDS011;30789;52.030;7.110;2022-09-09T11:09:52;3.92;;;1.10;;
34960;SDS011;30789;52.030;7.110;2022-09-09T11:12:21;3.90;;;1.10;;
34960;SDS011;30789;52.030;7.110;2022-09-09T11:14:49;1.63;;;0.70;;
34960;SDS011;30789;52.030;7.110;2022-09-09T11:17:18;3.70;;;0.77;;
34960;SDS011;30789;52.030;7.110;2022-09-09T11:19:44;2.25;;;0.73;;
34960;SDS011;30789;52.030;7.110;2022-09-09T11:22:15;3.53;;;0.60;;
34960;SDS011;30789;52.030;7.110;2022-09-09T11:24:43;3.10;;;0.77;;
34960;SDS011;30789;52.030;7.110;2022-09-09T11:27:13;2.17;;;0.65;;
34960;SDS011;30789;52.030;7.110;2022-09-09T11:32:46;2.30;;;0.70;;
34960;SDS011;30789;52.030;7.110;2022-09-09T11:35:20;1.55;;;0.70;;
34960;SDS011;30789;52.030;7.110;2022-09-09T11:37:57;1.15;;;0.77;;
34960;SDS011;30789;52.030;7.110;2022-09-09T11:40:27;4.43;;;0.80;;
34960;SDS011;30789;52.030;7.110;2022-09-09T11:43:03;3.85;;;0.90;;
34960;SDS011;30789;52.030;7.110;2022-09-09T11:45:31;2.47;;;0.80;;
34960;SDS011;30789;52.030;7.110;2022-09-09T11:47:58;1.10;;;0.57;;
34960;SDS011;30789;52.030;7.110;2022-09-09T11:50:33;2.15;;;0.75;;
34960;SDS011;30789;52.030;7.110;2022-09-09T11:53:04;2.38;;;0.60;;
34960;SDS011;30789;52.030;7.110;2022-09-09T11:55:31;1.63;;;0.60;;
34960;SDS011;30789;52.030;7.110;2022-09-09T11:57:58;1.08;;;0.55;;
34960;SDS011;30789;52.030;7.110;2022-09-09T12:00:32;1.73;;;0.50;;
34960;SDS011;30789;52.030;7.110;2022-09-09T12:02:59;2.33;;;0.93;;
34960;SDS011;30789;52.030;7.110;2022-09-09T12:05:34;0.98;;;0.40;;
34960;SDS011;30789;52.030;7.110;2022-09-09T12:08:02;3.50;;;0.80;;
34960;SDS011;30789;52.030;7.110;2022-09-09T12:10:29;2.97;;;0.70;;
34960;SDS011;30789;52.030;7.110;2022-09-09T12:13:07;3.35;;;0.70;;
34960;SDS011;30789;52.030;7.110;2022-09-09T12:15:35;3.67;;;0.70;;
34960;SDS011;30789;52.030;7.110;2022-09-09T12:18:14;2.75;;;0.98;;
34960;SDS011;30789;52.030;7.110;2022-09-09T12:20:40;2.13;;;0.93;;
34960;SDS011;30789;52.030;7.110;2022-09-09T12:23:19;3.15;;;0.93;;
34960;SDS011;30789;52.030;7.110;2022-09-09T12:28:15;2.10;;;0.77;;
34960;SDS011;30789;52.030;7.110;2022-09-09T12:30:46;3.05;;;0.77;;
34960;SDS011;30789;52.030;7.110;2022-09-09T12:33:16;2.35;;;0.90;;
34960;SDS011;30789;52.030;7.110;2022-09-09T12:35:43;2.08;;;0.80;;
34960;SDS011;30789;52.030;7.110;2022-09-09T12:38:11;1.88;;;0.88;;
34960;SDS011;30789;52.030;7.110;2022-09-09T12:40:39;1.92;;;0.88;;
34960;SDS011;30789;52.030;7.110;2022-09-09T12:43:17;3.33;;;0.70;;
34960;SDS011;30789;52.030;7.110;2022-09-09T12:45:44;1.85;;;0.85;;
34960;SDS011;30789;52.030;7.110;2022-09-09T12:48:11;2.03;;;1.10;;
34960;SDS011;30789;52.030;7.110;2022-09-09T12:50:43;2.25;;;0.70;;
34960;SDS011;30789;52.030;7.110;2022-09-09T12:53:12;2.15;;;0.50;;
34960;SDS011;30789;52.030;7.110;2022-09-09T12:55:48;2.35;;;0.93;;
34960;SDS011;30789;52.030;7.110;2022-09-09T12:58:14;3.03;;;0.70;;
34960;SDS011;30789;52.030;7.110;2022-09-09T13:00:49;0.77;;;0.55;;
34960;SDS011;30789;52.030;7.110;2022-09-09T13:03:17;2.47;;;0.77;;
34960;SDS011;30789;52.030;7.110;2022-09-09T13:05:43;0.90;;;0.50;;
34960;SDS011;30789;52.030;7.110;2022-09-09T13:08:12;2.60;;;0.70;;
34960;SDS011;30789;52.030;7.110;2022-09-09T13:10:39;6.32;;;0.68;;
34960;SDS011;30789;52.030;7.110;2022-09-09T13:13:11;2.50;;;0.65;;
34960;SDS011;30789;52.030;7.110;2022-09-09T13:15:39;3.20;;;0.70;;
34960;SDS011;30789;52.030;7.110;2022-09-09T13:18:10;1.50;;;0.70;;
34960;SDS011;30789;52.030;7.110;2022-09-09T13:23:03;4.50;;;0.85;;
34960;SDS011;30789;52.030;7.110;2022-09-09T13:25:29;5.10;;;0.77;;
34960;SDS011;30789;52.030;7.110;2022-09-09T13:27:57;4.03;;;0.90;;
34960;SDS011;30789;52.030;7.110;2022-09-09T13:30:24;6.20;;;1.10;;
34960;SDS011;30789;52.030;7.110;2022-09-09T13:33:04;2.42;;;0.68;;
34960;SDS011;30789;52.030;7.110;2022-09-09T13:35:32;1.23;;;0.65;;
34960;SDS011;30789;52.030;7.110;2022-09-09T13:37:59;2.67;;;0.90;;
34960;SDS011;30789;52.030;7.110;2022-09-09T13:40:25;6.07;;;0.80;;
34960;SDS011;30789;52.030;7.110;2022-09-09T13:42:53;3.47;;;0.70;;
34960;SDS011;30789;52.030;7.110;2022-09-09T13:45:22;3.70;;;1.08;;
34960;SDS011;30789;52.030;7.110;2022-09-09T13:47:52;1.88;;;0.80;;
34960;SDS011;30789;52.030;7.110;2022-09-09T13:50:20;2.00;;;0.80;;
34960;SDS011;30789;52.030;7.110;2022-09-09T13:52:48;1.45;;;0.50;;
34960;SDS011;30789;52.030;7.110;2022-09-09T13:55:16;1.95;;;0.50;;
34960;SDS011;30789;52.030;7.110;2022-09-09T13:57:49;0.70;;;0.30;;
34960;SDS011;30789;52.030;7.110;2022-09-09T14:00:16;0.50;;;0.25;;
34960;SDS011;30789;52.030;7.110;2022-09-09T14:02:42;2.97;;;0.28;;
34960;SDS011;30789;52.030;7.110;2022-09-09T14:05:09;0.70;;;0.50;;
34960;SDS011;30789;52.030;7.110;2022-09-09T14:07:36;2.92;;;0.50;;
34960;SDS011;30789;52.030;7.110;2022-09-09T14:10:04;1.52;;;0.60;;
34960;SDS011;30789;52.030;7.110;2022-09-09T14:12:31;4.25;;;0.65;;
34960;SDS011;30789;52.030;7.110;2022-09-09T14:14:57;2.17;;;0.50;;
34960;SDS011;30789;52.030;7.110;2022-09-09T14:17:24;2.78;;;0.60;;
34960;SDS011;30789;52.030;7.110;2022-09-09T14:19:54;1.48;;;0.82;;
34960;SDS011;30789;52.030;7.110;2022-09-09T14:22:21;3.28;;;0.90;;
34960;SDS011;30789;52.030;7.110;2022-09-09T14:24:47;3.20;;;0.65;;
34960;SDS011;30789;52.030;7.110;2022-09-09T14:27:14;4.20;;;0.68;;
34960;SDS011;30789;52.030;7.110;2022-09-09T14:29:41;3.97;;;1.10;;
34960;SDS011;30789;52.030;7.110;2022-09-09T14:32:08;1.80;;;0.70;;
34960;SDS011;30789;52.030;7.110;2022-09-09T14:34:34;3.50;;;0.85;;
34960;SDS011;30789;52.030;7.110;2022-09-09T14:37:01;3.15;;;0.80;;
34960;SDS011;30789;52.030;7.110;2022-09-09T14:39:27;1.40;;;0.80;;
34960;SDS011;30789;52.030;7.110;2022-09-09T14:41:53;0.70;;;0.70;;
34960;SDS011;30789;52.030;7.110;2022-09-09T14:44:21;1.65;;;0.80;;
34960;SDS011;30789;52.030;7.110;2022-09-09T14:46:47;2.10;;;0.90;;
34960;SDS011;30789;52.030;7.110;2022-09-09T14:49:15;1.67;;;0.80;;
34960;SDS011;30789;52.030;7.110;2022-09-09T14:51:41;2.28;;;1.02;;
34960;SDS011;30789;52.030;7.110;2022-09-09T14:54:07;2.22;;;0.93;;
34960;SDS011;30789;52.030;7.110;2022-09-09T14:56:34;2.13;;;0.95;;
34960;SDS011;30789;52.030;7.110;2022-09-09T14:59:00;2.80;;;0.98;;
34960;SDS011;30789;52.030;7.110;2022-09-09T15:01:29;2.20;;;0.90;;
34960;SDS011;30789;52.030;7.110;2022-09-09T15:03:56;2.53;;;0.63;;
34960;SDS011;30789;52.030;7.110;2022-09-09T15:06:24;2.65;;;1.10;;
34960;SDS011;30789;52.030;7.110;2022-09-09T15:08:51;1.88;;;1.00;;